createdAt,value
2019-02-26T00:02:10.085Z,4.87
2019-02-26T00:04:42.085Z,4.61
2019-02-26T00:07:16.233Z,4.48
2019-02-26T00:09:51.222Z,4.55
2019-02-26T00:12:23.803Z,4.57
2019-02-26T00:14:55.049Z,4.49
2019-02-26T00:17:26.711Z,4.45
2019-02-26T00:19:57.919Z,4.51
2019-02-26T00:22:29.988Z,4.43
2019-02-26T00:25:03.811Z,4.43
2019-02-26T00:27:35.308Z,4.52
2019-02-26T00:30:11.201Z,4.47
2019-02-26T00:32:42.076Z,4.42
2019-02-26T00:35:15.836Z,4.52
2019-02-26T00:37:48.929Z,4.57
2019-02-26T00:40:20.425Z,4.61
2019-02-26T00:42:54.390Z,4.73
2019-02-26T00:45:27.220Z,4.70
2019-02-26T00:47:58.002Z,4.61
2019-02-26T00:50:31.043Z,4.44
2019-02-26T00:53:03.981Z,4.39
2019-02-26T00:55:37.982Z,4.08
2019-02-26T00:58:10.776Z,4.21
2019-02-26T01:00:44.690Z,4.33
2019-02-26T01:03:15.920Z,4.37
2019-02-26T01:05:48.681Z,4.46
2019-02-26T01:08:20.010Z,4.29
2019-02-26T01:10:51.899Z,4.31
2019-02-26T01:13:25.580Z,4.33
2019-02-26T01:15:55.982Z,4.31
2019-02-26T01:18:29.002Z,4.23
2019-02-26T01:21:22.110Z,4.30
2019-02-26T01:23:52.065Z,4.37
2019-02-26T01:26:27.319Z,4.30
2019-02-26T01:28:58.596Z,4.28
2019-02-26T01:31:32.087Z,4.30
2019-02-26T01:34:03.034Z,4.23
2019-02-26T01:36:34.267Z,4.23
2019-02-26T01:39:11.286Z,4.06
2019-02-26T01:41:43.364Z,4.06
2019-02-26T01:44:15.590Z,4.00
2019-02-26T01:46:47.026Z,4.14
2019-02-26T01:49:19.213Z,4.23
2019-02-26T01:51:51.865Z,4.12
2019-02-26T01:54:23.973Z,4.22
2019-02-26T01:56:55.160Z,4.24
2019-02-26T01:59:28.492Z,4.12
2019-02-26T02:01:59.941Z,4.19
2019-02-26T02:04:32.030Z,4.19
2019-02-26T02:07:05.943Z,4.11
2019-02-26T02:09:37.010Z,4.18
2019-02-26T02:12:08.800Z,4.16
2019-02-26T02:14:42.309Z,4.17
2019-02-26T02:17:13.988Z,4.16
2019-02-26T02:19:45.542Z,4.16
2019-02-26T02:22:19.478Z,4.15
2019-02-26T02:24:53.994Z,4.27
2019-02-26T02:27:28.172Z,4.06
2019-02-26T02:29:58.926Z,4.16
2019-02-26T02:32:34.301Z,4.01
2019-02-26T02:35:06.752Z,4.01
2019-02-26T02:37:38.790Z,4.03
2019-02-26T02:40:10.365Z,4.01
2019-02-26T02:42:43.094Z,3.97
2019-02-26T02:45:19.707Z,3.96
2019-02-26T02:47:48.040Z,3.97
2019-02-26T02:50:19.974Z,4.06
2019-02-26T02:53:14.441Z,4.21
2019-02-26T02:55:47.057Z,4.09
2019-02-26T02:58:21.282Z,4.01
2019-02-26T03:00:54.405Z,3.99
2019-02-26T03:03:26.051Z,3.98
2019-02-26T03:05:58.345Z,3.98
2019-02-26T03:08:30.920Z,4.09
2019-02-26T03:11:14.389Z,4.01
2019-02-26T03:13:48.351Z,4.07
2019-02-26T03:16:21.358Z,4.02
2019-02-26T03:18:52.085Z,4.02
2019-02-26T03:21:24.742Z,3.98
2019-02-26T03:23:57.859Z,3.97
2019-02-26T03:26:29.924Z,3.88
2019-02-26T03:29:01.501Z,3.81
2019-02-26T03:31:35.053Z,3.78
2019-02-26T03:34:10.455Z,3.72
2019-02-26T03:36:40.809Z,3.82
2019-02-26T03:39:13.973Z,3.81
2019-02-26T03:41:46.043Z,3.75
2019-02-26T03:44:18.049Z,3.70
2019-02-26T03:46:49.255Z,3.71
2019-02-26T03:49:26.402Z,3.56
2019-02-26T03:51:59.086Z,3.67
2019-02-26T03:54:27.131Z,3.60
2019-02-26T03:56:59.043Z,3.31
2019-02-26T03:59:31.111Z,3.54
2019-02-26T04:02:02.571Z,3.52
2019-02-26T04:04:33.809Z,3.32
2019-02-26T04:07:09.896Z,3.26
2019-02-26T04:09:41.837Z,3.34
2019-02-26T04:12:12.986Z,3.35
2019-02-26T04:14:43.953Z,3.32
2019-02-26T04:17:15.151Z,3.23
2019-02-26T04:19:47.779Z,3.22
2019-02-26T04:22:50.092Z,3.24
2019-02-26T04:25:33.966Z,3.22
2019-02-26T04:28:15.431Z,3.20
2019-02-26T04:31:12.498Z,3.25
2019-02-26T04:34:04.420Z,3.14
2019-02-26T04:37:24.604Z,3.22
2019-02-26T04:40:17.181Z,3.13
2019-02-26T04:43:31.382Z,3.11
2019-02-26T04:46:30.992Z,3.14
2019-02-26T04:49:01.937Z,2.97
2019-02-26T04:51:34.332Z,2.95
2019-02-26T04:54:06.758Z,2.86
2019-02-26T04:56:40.140Z,2.89
2019-02-26T04:59:16.976Z,2.90
2019-02-26T05:01:52.341Z,2.95
2019-02-26T05:04:24.936Z,2.94
2019-02-26T05:06:56.175Z,2.90
2019-02-26T05:09:29.774Z,2.90
2019-02-26T05:12:00.957Z,2.95
2019-02-26T05:14:33.436Z,2.90
2019-02-26T05:17:05.163Z,2.89
2019-02-26T05:19:39.247Z,2.91
2019-02-26T05:22:09.967Z,2.91
2019-02-26T05:24:44.231Z,2.83
2019-02-26T05:27:18.661Z,2.76
2019-02-26T05:29:51.977Z,2.70
2019-02-26T05:32:25.133Z,2.83
2019-02-26T05:34:55.007Z,2.90
2019-02-26T05:37:29.270Z,2.92
2019-02-26T05:39:59.965Z,3.00
2019-02-26T05:42:31.230Z,3.01
2019-02-26T05:45:05.857Z,2.98
2019-02-26T05:47:35.987Z,2.92
2019-02-26T05:50:12.987Z,2.98
2019-02-26T05:52:40.180Z,2.98
2019-02-26T05:55:13.971Z,2.98
2019-02-26T05:57:44.940Z,2.94
2019-02-26T06:00:20.667Z,2.94
2019-02-26T06:02:51.092Z,3.00
2019-02-26T06:05:26.162Z,3.05
2019-02-26T06:07:58.053Z,2.99
2019-02-26T06:10:32.522Z,3.17
2019-02-26T06:13:05.004Z,3.10
2019-02-26T06:15:35.972Z,3.03
2019-02-26T06:18:07.153Z,2.97
2019-02-26T06:20:38.944Z,3.06
2019-02-26T06:23:10.273Z,2.97
2019-02-26T06:25:41.916Z,3.01
2019-02-26T06:28:15.408Z,3.22
2019-02-26T06:30:46.001Z,3.16
2019-02-26T06:33:18.975Z,3.25
2019-02-26T06:35:50.173Z,3.31
2019-02-26T06:38:23.452Z,3.26
2019-02-26T06:40:54.939Z,3.37
2019-02-26T06:43:26.475Z,3.40
2019-02-26T06:46:00.064Z,3.35
2019-02-26T06:48:32.588Z,3.38
2019-02-26T06:51:04.645Z,3.46
2019-02-26T06:53:36.961Z,3.56
2019-02-26T06:56:08.174Z,3.78
2019-02-26T06:58:42.762Z,3.92
2019-02-26T07:01:14.846Z,3.92
2019-02-26T07:03:46.862Z,3.98
2019-02-26T07:06:20.853Z,4.09
2019-02-26T07:08:52.953Z,4.24
2019-02-26T07:11:26.210Z,4.27
2019-02-26T07:13:58.857Z,4.32
2019-02-26T07:16:30.442Z,4.40
2019-02-26T07:19:03.911Z,4.43
2019-02-26T07:21:38.029Z,4.56
2019-02-26T07:24:10.040Z,4.54
2019-02-26T07:26:44.132Z,4.58
2019-02-26T07:29:17.651Z,4.80
2019-02-26T07:31:49.948Z,4.95
2019-02-26T07:34:22.794Z,5.13
2019-02-26T07:36:54.997Z,5.15
2019-02-26T07:39:26.276Z,5.18
2019-02-26T07:41:59.907Z,5.28
2019-02-26T07:44:31.108Z,5.34
2019-02-26T07:47:03.687Z,5.25
2019-02-26T07:49:36.034Z,5.23
2019-02-26T07:52:09.594Z,5.28
2019-02-26T07:54:42.759Z,5.53
2019-02-26T07:57:15.727Z,5.44
2019-02-26T07:59:50.090Z,5.65
2019-02-26T08:02:20.964Z,5.70
2019-02-26T08:04:52.177Z,5.71
2019-02-26T08:07:26.238Z,5.78
2019-02-26T08:09:58.110Z,5.83
2019-02-26T08:12:32.385Z,6.07
2019-02-26T08:15:04.942Z,6.27
2019-02-26T08:17:35.980Z,6.36
2019-02-26T08:20:10.023Z,6.43
2019-02-26T08:22:40.931Z,6.60
2019-02-26T08:25:13.673Z,6.66
2019-02-26T08:27:44.918Z,6.75
2019-02-26T08:30:20.978Z,6.75
2019-02-26T08:32:53.628Z,6.92
2019-02-26T08:35:24.779Z,7.19
2019-02-26T08:37:55.945Z,7.45
2019-02-26T08:40:27.330Z,7.55
2019-02-26T08:43:00.584Z,7.59
2019-02-26T08:45:32.023Z,7.88
2019-02-26T08:48:03.792Z,8.27
2019-02-26T08:50:38.520Z,8.53
2019-02-26T08:53:09.829Z,8.58
2019-02-26T08:55:41.029Z,8.81
2019-02-26T08:58:12.558Z,9.03
2019-02-26T09:00:44.101Z,9.06
2019-02-26T09:03:16.036Z,9.34
2019-02-26T09:05:49.425Z,9.43
2019-02-26T09:08:21.143Z,9.48
2019-02-26T09:10:53.019Z,9.63
2019-02-26T09:13:25.570Z,9.85
2019-02-26T09:16:00.072Z,9.88
2019-02-26T09:18:32.510Z,10.01
2019-02-26T09:21:06.980Z,10.25
2019-02-26T09:23:38.043Z,10.24
2019-02-26T09:26:10.013Z,10.38
2019-02-26T09:28:41.902Z,10.32
2019-02-26T09:31:14.213Z,10.48
2019-02-26T09:33:46.012Z,10.51
2019-02-26T09:36:20.501Z,10.66
2019-02-26T09:38:51.415Z,11.08
2019-02-26T09:41:23.832Z,11.36
2019-02-26T09:43:55.181Z,11.48
2019-02-26T09:46:27.951Z,11.74
2019-02-26T09:49:00.899Z,11.38
2019-02-26T09:51:33.003Z,11.46
2019-02-26T09:54:06.065Z,11.79
2019-02-26T09:56:37.990Z,11.71
2019-02-26T09:59:10.260Z,11.80
2019-02-26T10:01:44.615Z,11.99
2019-02-26T10:04:17.311Z,12.54
2019-02-26T10:06:48.961Z,12.77
2019-02-26T10:09:20.737Z,12.95
2019-02-26T10:11:51.988Z,13.21
2019-02-26T10:14:23.239Z,13.51
2019-02-26T10:16:56.879Z,13.50
2019-02-26T10:19:28.269Z,13.46
2019-02-26T10:22:00.820Z,13.12
2019-02-26T10:24:35.336Z,13.33
2019-02-26T10:27:08.398Z,13.33
2019-02-26T10:29:41.956Z,13.17
2019-02-26T10:32:13.257Z,12.94
2019-02-26T10:34:45.992Z,12.79
2019-02-26T10:37:18.735Z,12.79
2019-02-26T10:39:52.036Z,12.86
2019-02-26T10:42:24.188Z,12.76
2019-02-26T10:44:55.930Z,12.88
2019-02-26T10:47:29.909Z,12.82
2019-02-26T10:50:01.078Z,13.00
2019-02-26T10:52:33.294Z,13.20
2019-02-26T10:55:05.081Z,13.08
2019-02-26T10:57:38.754Z,13.32
2019-02-26T11:00:18.657Z,13.60
2019-02-26T11:02:53.423Z,13.44
2019-02-26T11:05:26.316Z,13.60
2019-02-26T11:07:59.790Z,13.62
2019-02-26T11:10:33.659Z,13.06
2019-02-26T11:13:05.081Z,13.57
2019-02-26T11:15:37.064Z,13.87
2019-02-26T11:18:14.514Z,13.82
2019-02-26T11:20:49.716Z,13.93
2019-02-26T11:23:30.284Z,13.77
2019-02-26T11:25:55.780Z,13.47
2019-02-26T11:28:29.717Z,13.57
2019-02-26T11:31:00.046Z,13.91
2019-02-26T11:33:31.440Z,13.98
2019-02-26T11:36:04.979Z,14.26
2019-02-26T11:38:39.094Z,13.64
2019-02-26T11:41:09.999Z,13.07
2019-02-26T11:43:41.255Z,13.28
2019-02-26T11:46:13.513Z,12.67
2019-02-26T11:48:45.705Z,12.62
2019-02-26T11:51:20.068Z,12.50
2019-02-26T11:53:52.520Z,11.96
2019-02-26T11:56:25.716Z,11.44
2019-02-26T11:58:58.772Z,11.50
2019-02-26T12:01:32.233Z,11.58
2019-02-26T12:04:04.152Z,11.26
2019-02-26T12:06:36.077Z,11.19
2019-02-26T12:09:10.835Z,11.16
2019-02-26T12:11:42.044Z,11.01
2019-02-26T12:14:19.409Z,10.83
2019-02-26T12:16:50.194Z,10.74
2019-02-26T12:19:23.112Z,10.62
2019-02-26T12:21:57.277Z,10.66
2019-02-26T12:24:28.995Z,10.67
2019-02-26T12:27:01.105Z,10.52
2019-02-26T12:29:33.094Z,10.55
2019-02-26T12:32:05.151Z,10.49
2019-02-26T12:34:38.588Z,10.31
2019-02-26T12:37:11.701Z,10.21
2019-02-26T12:39:43.716Z,10.17
2019-02-26T12:42:18.479Z,10.20
2019-02-26T12:44:48.951Z,10.25
2019-02-26T12:47:21.785Z,10.07
2019-02-26T12:49:55.646Z,9.98
2019-02-26T12:52:30.161Z,10.19
2019-02-26T12:55:00.806Z,10.09
2019-02-26T12:57:32.976Z,10.20
2019-02-26T13:00:06.884Z,10.30
2019-02-26T13:02:39.990Z,10.24
2019-02-26T13:05:35.225Z,10.45
2019-02-26T13:08:09.788Z,10.39
2019-02-26T13:10:42.553Z,10.46
2019-02-26T13:13:16.012Z,10.47
2019-02-26T13:15:48.639Z,10.48
2019-02-26T13:18:20.014Z,10.33
2019-02-26T13:20:56.830Z,10.29
2019-02-26T13:23:24.209Z,10.27
2019-02-26T13:25:56.418Z,10.15
2019-02-26T13:28:29.717Z,10.19
2019-02-26T13:31:02.351Z,10.17
2019-02-26T13:33:37.648Z,10.26
2019-02-26T13:36:09.619Z,10.05
2019-02-26T13:38:45.010Z,9.97
2019-02-26T13:41:38.314Z,10.10
2019-02-26T13:43:49.079Z,9.95
2019-02-26T13:46:22.631Z,9.96
2019-02-26T13:48:55.515Z,9.86
2019-02-26T13:51:27.905Z,9.94
2019-02-26T13:53:59.093Z,9.98
2019-02-26T13:56:31.681Z,9.95
2019-02-26T13:59:02.998Z,9.87
2019-02-26T14:01:34.272Z,10.01
2019-02-26T14:04:05.935Z,9.93
2019-02-26T14:06:37.145Z,9.88
2019-02-26T14:09:09.918Z,9.78
2019-02-26T14:11:42.764Z,9.87
2019-02-26T14:14:14.891Z,9.93
2019-02-26T14:16:47.917Z,10.00
2019-02-26T14:19:19.111Z,10.07
2019-02-26T14:21:50.853Z,10.07
2019-02-26T14:24:22.076Z,10.13
2019-02-26T14:26:54.894Z,10.13
2019-02-26T14:29:26.111Z,10.18
2019-02-26T14:31:58.032Z,10.18
2019-02-26T14:34:30.180Z,10.14
2019-02-26T14:37:01.966Z,10.15
2019-02-26T14:39:33.168Z,10.15
2019-02-26T14:42:05.092Z,10.05
2019-02-26T14:44:38.634Z,10.06
2019-02-26T14:47:09.930Z,10.01
2019-02-26T14:49:41.131Z,10.24
2019-02-26T14:52:12.570Z,10.05
2019-02-26T14:54:45.763Z,10.18
2019-02-26T14:57:17.037Z,10.10
2019-02-26T14:59:48.952Z,10.00
2019-02-26T15:02:20.832Z,9.93
2019-02-26T15:04:52.841Z,9.87
2019-02-26T15:07:26.581Z,10.02
2019-02-26T15:09:57.956Z,10.01
2019-02-26T15:12:29.525Z,9.91
2019-02-26T15:15:01.057Z,10.01
2019-02-26T15:17:33.063Z,9.99
2019-02-26T15:20:06.324Z,9.83
2019-02-26T15:22:38.170Z,9.78
2019-02-26T15:25:13.123Z,9.75
2019-02-26T15:27:44.974Z,9.75
2019-02-26T15:30:16.689Z,9.69
2019-02-26T15:32:48.117Z,9.56
2019-02-26T15:35:20.094Z,9.47
2019-02-26T15:37:52.046Z,9.63
2019-02-26T15:40:25.842Z,9.57
2019-02-26T15:42:57.205Z,9.52
2019-02-26T15:45:29.553Z,9.54
2019-02-26T15:48:03.973Z,9.57
2019-02-26T15:50:37.701Z,9.63
2019-02-26T15:53:09.593Z,9.37
2019-02-26T15:55:40.932Z,9.46
2019-02-26T15:58:12.145Z,9.43
2019-02-26T16:00:43.813Z,9.36
2019-02-26T16:03:15.046Z,9.25
2019-02-26T16:05:47.059Z,9.10
2019-02-26T16:08:19.338Z,9.08
2019-02-26T16:10:51.052Z,9.06
2019-02-26T16:13:23.079Z,8.96
2019-02-26T16:15:55.082Z,9.02
2019-02-26T16:18:27.620Z,8.92
2019-02-26T16:21:00.185Z,9.04
2019-02-26T16:23:31.522Z,8.96
2019-02-26T16:26:05.643Z,9.02
2019-02-26T16:28:38.372Z,9.14
2019-02-26T16:31:10.181Z,9.30
2019-02-26T16:33:42.154Z,9.33
2019-02-26T16:36:14.016Z,9.38
2019-02-26T16:38:50.738Z,9.65
2019-02-26T16:41:19.089Z,9.63
2019-02-26T16:43:51.927Z,9.68
2019-02-26T16:46:24.048Z,9.83
2019-02-26T16:48:55.238Z,10.07
2019-02-26T16:51:27.120Z,10.11
2019-02-26T16:53:59.030Z,10.14
2019-02-26T16:56:30.223Z,10.12
2019-02-26T16:59:02.137Z,9.96
2019-02-26T17:01:34.955Z,9.90
2019-02-26T17:04:07.614Z,9.71
2019-02-26T17:06:39.687Z,9.70
2019-02-26T17:09:13.315Z,9.55
2019-02-26T17:11:47.110Z,9.47
2019-02-26T17:14:18.198Z,9.28
2019-02-26T17:16:50.267Z,9.19
2019-02-26T17:19:22.236Z,9.30
2019-02-26T17:21:54.133Z,9.15
2019-02-26T17:24:26.378Z,9.11
2019-02-26T17:26:58.092Z,9.05
2019-02-26T17:29:29.962Z,9.04
2019-02-26T17:32:04.048Z,8.93
2019-02-26T17:34:35.824Z,9.04
2019-02-26T17:37:08.506Z,9.00
2019-02-26T17:39:40.206Z,8.69
2019-02-26T17:42:12.210Z,8.60
2019-02-26T17:44:44.082Z,8.49
2019-02-26T17:47:16.110Z,8.47
2019-02-26T17:49:48.210Z,8.52
2019-02-26T17:52:19.522Z,8.49
2019-02-26T17:54:52.056Z,8.29
2019-02-26T17:57:24.520Z,8.33
2019-02-26T17:59:56.951Z,8.32
2019-02-26T18:02:28.432Z,8.37
2019-02-26T18:05:00.760Z,8.29
2019-02-26T18:07:33.700Z,8.37
2019-02-26T18:10:06.164Z,8.47
2019-02-26T18:12:39.946Z,8.53
2019-02-26T18:15:11.948Z,8.41
2019-02-26T18:17:43.262Z,8.32
2019-02-26T18:23:27.929Z,8.45
2019-02-26T18:26:00.712Z,8.51
2019-02-26T18:28:31.940Z,8.42
2019-02-26T18:31:03.279Z,8.49
2019-02-26T18:33:36.169Z,8.46
2019-02-26T18:36:08.518Z,8.34
2019-02-26T18:38:40.888Z,8.48
2019-02-26T18:41:13.069Z,8.44
2019-02-26T18:43:47.510Z,8.44
2019-02-26T18:46:18.133Z,8.34
2019-02-26T18:48:50.131Z,8.38
2019-02-26T18:51:23.782Z,8.09
2019-02-26T18:53:54.978Z,8.18
2019-02-26T18:56:26.282Z,8.16
2019-02-26T19:02:22.450Z,8.23
2019-02-26T19:04:55.848Z,7.92
2019-02-26T19:07:28.037Z,7.87
2019-02-26T19:10:00.876Z,7.92
2019-02-26T19:12:33.669Z,7.99
2019-02-26T19:15:06.303Z,7.71
2019-02-26T19:17:40.184Z,7.84
2019-02-26T19:20:14.954Z,7.67
2019-02-26T19:22:47.126Z,7.78
2019-02-26T19:25:19.827Z,7.92
2019-02-26T19:27:53.086Z,7.77
2019-02-26T19:30:23.999Z,7.68
2019-02-26T19:32:55.856Z,7.74
2019-02-26T19:35:27.097Z,7.75
2019-02-26T19:37:58.918Z,7.69
2019-02-26T19:40:38.649Z,7.71
2019-02-26T19:43:09.276Z,7.62
2019-02-26T19:45:43.626Z,7.50
2019-02-26T19:48:14.025Z,7.38
2019-02-26T19:50:47.945Z,7.52
2019-02-26T19:53:20.755Z,7.65
2019-02-26T19:55:53.129Z,7.73
2019-02-26T19:58:24.813Z,7.71
2019-02-26T20:00:56.436Z,7.84
2019-02-26T20:03:39.295Z,7.97
2019-02-26T20:06:06.892Z,8.16
2019-02-26T20:08:47.273Z,8.14
2019-02-26T20:11:22.369Z,8.13
2019-02-26T20:13:52.071Z,8.27
2019-02-26T20:16:27.581Z,8.29
2019-02-26T20:18:59.072Z,8.40
2019-02-26T20:21:31.022Z,8.49
2019-02-26T20:24:16.456Z,8.54
2019-02-26T20:26:47.623Z,8.72
2019-02-26T20:29:21.061Z,8.64
2019-02-26T20:31:55.612Z,8.55
2019-02-26T20:34:25.916Z,8.79
2019-02-26T20:36:57.117Z,8.54
2019-02-26T20:39:28.765Z,8.57
2019-02-26T20:41:59.968Z,8.69
2019-02-26T20:44:32.816Z,8.77
2019-02-26T20:47:04.019Z,8.79
2019-02-26T20:49:35.253Z,8.73
2019-02-26T20:52:06.822Z,8.77
2019-02-26T20:54:38.063Z,8.65
2019-02-26T20:57:10.211Z,8.61
2019-02-26T20:59:42.026Z,8.79
2019-02-26T21:02:13.676Z,8.99
2019-02-26T21:04:45.253Z,9.00
2019-02-26T21:07:17.080Z,9.04
2019-02-26T21:09:48.373Z,9.03
2019-02-26T21:12:21.155Z,9.07
2019-02-26T21:14:53.071Z,9.03
2019-02-26T21:17:25.850Z,9.01
2019-02-26T21:19:58.144Z,8.92
2019-02-26T21:22:29.832Z,8.98
2019-02-26T21:25:01.185Z,8.96
2019-02-26T21:27:33.231Z,9.01
2019-02-26T21:30:05.499Z,8.92
2019-02-26T21:32:37.020Z,9.00
2019-02-26T21:35:08.526Z,9.03
2019-02-26T21:37:39.973Z,9.04
2019-02-26T21:40:15.883Z,8.97
2019-02-26T21:42:44.967Z,8.97
2019-02-26T21:48:53.335Z,9.03
2019-02-26T21:51:25.005Z,8.97
2019-02-26T21:53:58.807Z,9.01
2019-02-26T21:56:30.138Z,9.07
2019-02-26T21:59:02.192Z,8.98
2019-02-26T22:01:33.932Z,9.03
2019-02-26T22:04:05.284Z,8.86
2019-02-26T22:06:37.086Z,8.79
2019-02-26T22:09:09.103Z,8.76
2019-02-26T22:11:42.573Z,8.68
2019-02-26T22:14:17.828Z,8.76
2019-02-26T22:16:51.404Z,8.71
2019-02-26T22:19:22.393Z,8.66
2019-02-26T22:21:54.326Z,8.65
2019-02-26T22:24:25.744Z,8.75
2019-02-26T22:26:59.381Z,8.67
2019-02-26T22:29:30.815Z,8.71
2019-02-26T22:32:02.540Z,8.61
2019-02-26T22:34:34.127Z,8.62
2019-02-26T22:37:07.409Z,8.63
2019-02-26T22:39:40.702Z,8.54
2019-02-26T22:42:12.010Z,8.48
2019-02-26T22:44:43.647Z,8.43
2019-02-26T22:47:15.021Z,8.42
2019-02-26T22:49:46.298Z,8.44
2019-02-26T22:52:18.053Z,8.49
2019-02-26T22:54:49.783Z,8.36
2019-02-26T22:57:21.316Z,8.32
2019-02-26T22:59:53.440Z,8.31
2019-02-26T23:02:28.077Z,8.19
2019-02-26T23:05:01.849Z,8.15
2019-02-26T23:07:33.277Z,7.98
2019-02-26T23:10:05.506Z,7.84
2019-02-26T23:12:39.932Z,7.70
2019-02-26T23:15:12.643Z,7.75
2019-02-26T23:17:46.331Z,7.68
2019-02-26T23:20:18.178Z,7.67
2019-02-26T23:22:50.318Z,7.63
2019-02-26T23:25:22.115Z,7.71
2019-02-26T23:27:54.002Z,7.52
2019-02-26T23:30:27.200Z,7.68
2019-02-26T23:32:59.537Z,7.57
2019-02-26T23:35:31.375Z,7.53
2019-02-26T23:38:02.972Z,7.45
2019-02-26T23:40:34.794Z,7.24
2019-02-26T23:43:06.486Z,7.11
2019-02-26T23:45:38.025Z,6.93
2019-02-26T23:48:09.224Z,6.87
2019-02-26T23:50:40.892Z,6.86
2019-02-26T23:53:12.115Z,6.79
2019-02-26T23:55:47.235Z,6.53
2019-02-26T23:58:17.133Z,6.26
